Time;durP1;ratioP1;P1;durP2;ratioP2;P2;SDS_P1;SDS_P2;PMS_P1;PMS_P2;Temp;Humidity;BMP_temperature;BMP_pressure;BME280_temperature;BME280_humidity;BME280_pressure;Samples;Min_cycle;Max_cycle;Signal;HPM_P1;HPM_P2
2023/03/14 00:00:00;;;;;;;5.75;1.85;;;18.10;56.50;;;;;;6214527;23;20019;-78
2023/03/14 00:02:27;;;;;;;5.28;2.20;;;18.00;56.60;;;;;;6214629;23;20348;-78
2023/03/14 00:04:56;;;;;;;6.90;1.80;;;18.00;56.30;;;;;;6215101;23;20004;-78
2023/03/14 00:07:24;;;;;;;7.85;2.47;;;18.00;56.30;;;;;;6215053;23;19997;-78
2023/03/14 00:09:51;;;;;;;5.85;1.90;;;18.00;56.30;;;;;;6215011;23;19993;-78
2023/03/14 00:12:17;;;;;;;9.57;2.20;;;18.00;56.40;;;;;;6214938;23;20063;-78
2023/03/14 00:14:43;;;;;;;5.72;1.70;;;18.00;56.30;;;;;;6214695;23;20068;-78
2023/03/14 00:17:09;;;;;;;7.50;1.80;;;18.00;56.40;;;;;;6224625;23;20470;-72
2023/03/14 00:19:35;;;;;;;3.90;1.48;;;18.00;56.30;;;;;;6214357;23;20004;-71
2023/03/14 00:22:01;;;;;;;5.07;1.90;;;18.00;56.30;;;;;;6214560;23;20003;-71
2023/03/14 00:24:27;;;;;;;6.70;1.85;;;18.00;56.40;;;;;;6214707;23;20001;-71
2023/03/14 00:26:53;;;;;;;4.53;1.40;;;18.00;56.30;;;;;;6214809;23;20035;-71
2023/03/14 00:29:19;;;;;;;6.43;1.75;;;18.00;56.30;;;;;;6214288;23;20428;-71
2023/03/14 00:31:45;;;;;;;6.25;1.60;;;18.00;56.30;;;;;;6214729;23;20324;-71
2023/03/14 00:34:11;;;;;;;4.35;1.60;;;18.00;56.40;;;;;;6214657;23;20001;-71
2023/03/14 00:36:37;;;;;;;4.72;1.38;;;18.00;56.40;;;;;;6214509;23;20424;-71
2023/03/14 00:39:03;;;;;;;2.92;1.10;;;18.00;56.30;;;;;;6214228;23;20011;-72
2023/03/14 00:41:29;;;;;;;6.72;1.65;;;18.00;56.30;;;;;;6214271;23;20032;-71
2023/03/14 00:43:55;;;;;;;3.65;1.40;;;18.00;56.30;;;;;;6214735;23;20363;-71
2023/03/14 00:46:21;;;;;;;5.25;1.27;;;18.00;56.30;;;;;;6214585;23;19997;-71
2023/03/14 00:48:47;;;;;;;6.25;1.70;;;18.00;56.30;;;;;;6214666;23;20360;-72
2023/03/14 00:51:14;;;;;;;4.28;1.40;;;18.00;56.40;;;;;;6214494;23;20001;-71
2023/03/14 00:53:41;;;;;;;4.03;1.33;;;18.00;56.40;;;;;;6224437;23;20341;-78
2023/03/14 00:56:09;;;;;;;3.90;1.40;;;18.00;56.30;;;;;;6224553;23;20480;-78
2023/03/14 00:58:35;;;;;;;5.05;1.30;;;18.00;56.40;;;;;;6224421;23;20062;-78
2023/03/14 01:01:14;;;;;;;4.30;1.40;;;18.10;64.70;;;;;;6224389;23;20000;-78
2023/03/14 01:03:40;;;;;;;2.47;1.05;;;18.00;56.40;;;;;;6224501;23;20092;-78
2023/03/14 01:06:14;;;;;;;5.38;1.55;;;18.00;56.60;;;;;;6224469;23;20339;-78
2023/03/14 01:08:40;;;;;;;6.20;1.20;;;18.00;56.50;;;;;;6224594;23;20055;-78
2023/03/14 01:11:16;;;;;;;3.50;1.00;;;18.00;56.50;;;;;;6224362;23;19993;-78
2023/03/14 01:13:42;;;;;;;3.40;1.48;;;18.00;56.60;;;;;;6224563;23;20008;-78
2023/03/14 01:16:10;;;;;;;3.35;1.33;;;18.00;56.60;;;;;;6224389;23;20332;-78
2023/03/14 01:18:37;;;;;;;3.40;1.17;;;18.00;56.50;;;;;;6224328;23;20059;-78
2023/03/14 01:21:20;;;;;;;4.15;1.15;;;18.00;56.40;;;;;;6224407;23;19996;-78
2023/03/14 01:23:47;;;;;;;2.75;1.17;;;18.00;56.50;;;;;;6214595;23;20336;-78
2023/03/14 01:26:16;;;;;;;3.17;1.25;;;18.00;56.50;;;;;;6214611;23;19996;-78
2023/03/14 01:28:42;;;;;;;3.28;1.10;;;18.00;56.50;;;;;;6214562;23;20004;-78
2023/03/14 01:31:09;;;;;;;5.18;1.35;;;18.00;56.60;;;;;;6224317;23;19997;-78
2023/03/14 01:33:35;;;;;;;4.93;1.70;;;18.00;56.60;;;;;;6225659;23;20024;-78
2023/03/14 01:36:04;;;;;;;4.20;1.35;;;18.00;56.50;;;;;;6226188;23;20000;-78
2023/03/14 01:38:30;;;;;;;3.63;0.80;;;18.00;56.60;;;;;;6225802;23;20001;-79
2023/03/14 01:40:57;;;;;;;3.25;1.38;;;18.00;56.60;;;;;;6216086;23;20487;-78
2023/03/14 01:43:24;;;;;;;3.22;0.95;;;18.00;56.60;;;;;;6215946;23;19993;-78
2023/03/14 01:46:05;;;;;;;3.47;1.20;;;17.90;56.60;;;;;;6216442;23;20332;-78
2023/03/14 01:48:38;;;;;;;3.97;1.10;;;17.90;56.40;;;;;;6216134;23;20417;-79
2023/03/14 01:51:09;;;;;;;2.20;0.82;;;17.90;56.60;;;;;;6216444;23;20020;-72
2023/03/14 01:53:37;;;;;;;3.03;0.82;;;18.00;56.70;;;;;;6225924;23;19993;-71
2023/03/14 01:56:05;;;;;;;2.50;0.95;;;17.90;56.70;;;;;;6216115;23;19997;-71
2023/03/14 01:58:34;;;;;;;2.65;0.80;;;17.90;56.60;;;;;;6215895;23;20390;-72
2023/03/14 02:01:01;;;;;;;5.03;1.33;;;17.90;64.90;;;;;;6215678;23;20067;-71
2023/03/14 02:03:30;;;;;;;5.28;1.35;;;17.90;56.70;;;;;;6215485;23;20009;-71
2023/03/14 02:06:01;;;;;;;3.45;1.02;;;17.90;56.70;;;;;;6215935;23;20001;-71
2023/03/14 02:08:27;;;;;;;5.03;1.17;;;17.90;56.70;;;;;;6215831;23;20015;-71
2023/03/14 02:10:53;;;;;;;3.95;1.05;;;17.90;56.60;;;;;;6225630;23;20444;-71
2023/03/14 02:13:21;;;;;;;3.28;1.00;;;17.90;57.30;;;;;;6225734;23;20083;-71
2023/03/14 02:15:46;;;;;;;3.55;1.35;;;17.90;56.60;;;;;;6225460;23;19993;-71
2023/03/14 02:18:14;;;;;;;3.22;1.00;;;17.90;56.60;;;;;;6225473;23;20084;-71
2023/03/14 02:20:53;;;;;;;5.70;1.17;;;17.90;56.70;;;;;;6225574;23;20027;-71
2023/03/14 02:23:38;;;;;;;3.17;1.33;;;17.90;56.70;;;;;;6225639;23;20076;-71
2023/03/14 02:26:11;;;;;;;2.20;0.77;;;17.90;56.60;;;;;;6193798;23;20050;-71
2023/03/14 02:28:37;;;;;;;3.30;1.08;;;17.90;56.60;;;;;;6215932;23;20313;-71
2023/03/14 02:31:03;;;;;;;4.10;1.10;;;17.80;56.70;;;;;;6225563;23;20004;-71
2023/03/14 02:33:29;;;;;;;3.03;0.95;;;17.80;56.70;;;;;;6215720;23;20371;-71
2023/03/14 02:36:01;;;;;;;3.47;0.98;;;17.80;56.60;;;;;;6225424;23;20000;-71
2023/03/14 02:38:52;;;;;;;3.13;1.00;;;17.80;56.60;;;;;;6224004;23;20005;-72
2023/03/14 02:41:18;;;;;;;5.18;1.23;;;17.80;56.60;;;;;;6225490;23;20000;-71
2023/03/14 02:43:44;;;;;;;3.38;1.27;;;17.90;56.70;;;;;;6225209;23;19992;-71
2023/03/14 02:46:16;;;;;;;2.70;0.90;;;17.80;56.70;;;;;;6225243;23;20000;-71
2023/03/14 02:48:56;;;;;;;5.07;1.30;;;17.90;56.70;;;;;;6225302;23;19997;-71
2023/03/14 02:51:23;;;;;;;;;;;17.80;56.50;;;;;;6225920;23;20003;-71
2023/03/14 02:53:49;;;;;;;5.38;1.08;;;17.80;56.60;;;;;;6215217;23;19942;-71
2023/03/14 02:56:15;;;;;;;4.68;1.10;;;17.80;56.70;;;;;;6215556;23;19997;-71
2023/03/14 02:58:41;;;;;;;4.38;1.10;;;17.80;56.70;;;;;;6215452;23;20062;-71
2023/03/14 03:01:07;;;;;;;5.75;1.40;;;17.70;64.90;;;;;;6213504;23;20001;-71
2023/03/14 03:03:33;;;;;;;3.00;1.08;;;17.80;56.70;;;;;;6215091;23;20403;-71
2023/03/14 03:05:59;;;;;;;5.07;1.20;;;17.80;56.70;;;;;;6215126;23;20090;-71
2023/03/14 03:08:27;;;;;;;4.38;1.02;;;17.80;56.70;;;;;;6215442;23;20005;-71
2023/03/14 03:10:54;;;;;;;3.15;1.20;;;17.80;56.70;;;;;;6215314;23;20004;-71
2023/03/14 03:13:20;;;;;;;5.10;1.38;;;17.70;56.70;;;;;;6215102;23;19997;-71
2023/03/14 03:15:46;;;;;;;4.35;1.25;;;17.80;56.60;;;;;;6215161;23;20003;-71
2023/03/14 03:18:12;;;;;;;3.30;1.10;;;17.80;56.70;;;;;;6215140;23;20031;-71
2023/03/14 03:20:38;;;;;;;4.00;1.70;;;17.70;56.60;;;;;;6214903;23;20416;-71
2023/03/14 03:23:05;;;;;;;2.58;1.15;;;17.80;56.70;;;;;;6214896;23;19993;-71
2023/03/14 03:25:31;;;;;;;3.88;1.10;;;17.70;56.60;;;;;;6215317;23;20000;-71
2023/03/14 03:27:57;;;;;;;4.82;1.10;;;17.70;56.60;;;;;;6215246;23;20059;-71
2023/03/14 03:30:23;;;;;;;3.15;1.13;;;17.70;56.60;;;;;;6215302;23;20000;-71
2023/03/14 03:32:49;;;;;;;3.65;1.10;;;17.70;56.60;;;;;;6215121;23;20009;-71
2023/03/14 03:35:15;;;;;;;5.72;1.23;;;17.70;56.70;;;;;;6214657;23;20383;-71
2023/03/14 03:37:41;;;;;;;4.88;1.20;;;17.70;56.60;;;;;;6215198;23;20008;-71
2023/03/14 03:40:08;;;;;;;6.28;1.00;;;17.70;56.60;;;;;;6215050;23;20008;-71
2023/03/14 03:42:35;;;;;;;4.03;1.00;;;17.70;56.60;;;;;;6215152;23;19997;-71
2023/03/14 03:45:02;;;;;;;4.32;1.10;;;17.70;56.60;;;;;;6214993;23;19997;-71
2023/03/14 03:47:30;;;;;;;3.80;1.10;;;17.70;56.60;;;;;;6215118;23;20027;-71
2023/03/14 03:49:56;;;;;;;4.18;1.20;;;17.70;56.60;;;;;;6214538;23;20031;-71
2023/03/14 03:52:22;;;;;;;4.43;1.10;;;17.60;56.60;;;;;;6214991;23;19993;-71
2023/03/14 03:54:48;;;;;;;2.70;1.10;;;17.70;56.70;;;;;;6214690;23;20032;-71
2023/03/14 03:57:14;;;;;;;5.22;1.33;;;17.70;56.70;;;;;;6214173;23;20040;-71
2023/03/14 03:59:40;;;;;;;3.78;1.35;;;17.60;56.60;;;;;;6214971;23;20048;-71
2023/03/14 04:02:07;;;;;;;4.47;1.30;;;17.60;56.60;;;;;;6214453;23;20009;-71
2023/03/14 04:04:33;;;;;;;3.50;1.13;;;17.70;56.70;;;;;;6214953;23;19997;-71
2023/03/14 04:06:58;;;;;;;4.35;1.20;;;17.70;56.70;;;;;;6224574;23;20007;-71
2023/03/14 04:09:24;;;;;;;2.58;0.77;;;17.60;56.60;;;;;;6224582;23;20424;-71
2023/03/14 04:11:50;;;;;;;3.80;1.40;;;17.70;56.70;;;;;;6224672;23;20066;-71
2023/03/14 04:14:15;;;;;;;2.30;0.70;;;17.60;56.70;;;;;;6224468;23;20008;-71
2023/03/14 04:16:41;;;;;;;4.65;1.17;;;17.60;56.70;;;;;;6214841;23;20065;-71
2023/03/14 04:19:06;;;;;;;3.00;0.90;;;17.60;56.70;;;;;;6224456;23;20005;-71
2023/03/14 04:21:32;;;;;;;4.30;1.58;;;17.60;56.70;;;;;;6224540;23;19993;-72
2023/03/14 04:23:58;;;;;;;2.45;1.10;;;17.60;56.80;;;;;;6224475;23;20301;-71
2023/03/14 04:26:23;;;;;;;2.88;0.95;;;17.60;56.80;;;;;;6224487;23;19993;-71
2023/03/14 04:28:49;;;;;;;2.78;1.20;;;17.60;56.80;;;;;;6224605;23;20001;-71
2023/03/14 04:31:18;;;;;;;3.25;0.88;;;17.60;56.80;;;;;;6224546;23;20003;-71
2023/03/14 04:33:44;;;;;;;3.22;1.25;;;17.60;56.80;;;;;;6224629;23;20007;-71
2023/03/14 04:36:09;;;;;;;3.67;0.90;;;17.60;57.40;;;;;;6224460;23;20000;-71
2023/03/14 04:38:36;;;;;;;2.92;1.20;;;17.60;56.80;;;;;;6224819;23;20005;-71
2023/03/14 04:41:01;;;;;;;2.78;1.08;;;17.60;56.80;;;;;;6224533;23;20000;-71
2023/03/14 04:43:27;;;;;;;3.95;1.00;;;17.60;56.80;;;;;;6212754;23;20467;-71
2023/03/14 04:45:54;;;;;;;2.78;1.00;;;17.60;56.90;;;;;;6214715;23;20000;-71
2023/03/14 04:48:20;;;;;;;2.53;0.90;;;17.60;56.90;;;;;;6214526;23;20073;-71
2023/03/14 04:50:47;;;;;;;3.00;0.90;;;17.60;56.90;;;;;;6214657;23;19997;-71
2023/03/14 04:53:14;;;;;;;2.28;0.70;;;17.50;56.90;;;;;;6214318;23;19993;-71
2023/03/14 04:55:40;;;;;;;3.28;0.90;;;17.60;56.90;;;;;;6214725;23;20063;-71
2023/03/14 04:58:06;;;;;;;3.00;1.20;;;17.50;56.90;;;;;;6214204;23;19993;-71
2023/03/14 05:00:33;;;;;;;2.90;0.77;;;17.50;56.90;;;;;;6214569;23;20004;-72
2023/03/14 05:02:59;;;;;;;3.30;0.85;;;17.50;57.00;;;;;;6214056;23;20443;-71
2023/03/14 05:05:25;;;;;;;3.53;1.02;;;17.50;56.90;;;;;;6214183;23;20432;-72
2023/03/14 05:07:51;;;;;;;3.25;1.05;;;17.50;57.00;;;;;;6215002;23;20072;-71
2023/03/14 05:10:17;;;;;;;2.92;0.70;;;17.50;56.90;;;;;;6216395;23;20024;-71
2023/03/14 05:12:43;;;;;;;2.00;0.60;;;17.50;57.00;;;;;;6216280;23;20003;-71
2023/03/14 05:15:09;;;;;;;2.33;0.60;;;17.50;57.00;;;;;;6216544;23;20080;-71
2023/03/14 05:17:35;;;;;;;5.03;0.98;;;17.50;57.00;;;;;;6216710;23;20567;-71
2023/03/14 05:20:07;;;;;;;2.58;0.73;;;17.50;57.10;;;;;;6216333;23;20009;-71
2023/03/14 05:22:33;;;;;;;1.23;0.63;;;17.50;57.10;;;;;;6216145;23;19997;-71
2023/03/14 05:24:59;;;;;;;2.08;0.63;;;17.50;57.80;;;;;;6216028;23;20443;-71
2023/03/14 05:27:25;;;;;;;2.92;0.90;;;17.50;57.20;;;;;;6216303;23;20382;-71
2023/03/14 05:29:51;;;;;;;3.67;1.20;;;17.50;57.40;;;;;;6216319;23;19997;-71
2023/03/14 05:32:17;;;;;;;0.77;0.55;;;17.50;57.30;;;;;;6216005;23;20001;-71
2023/03/14 05:34:44;;;;;;;1.00;0.50;;;17.50;57.40;;;;;;6215814;23;20071;-71
2023/03/14 05:37:10;;;;;;;3.65;1.13;;;17.50;57.50;;;;;;6215905;23;20008;-71
2023/03/14 05:39:36;;;;;;;1.52;1.15;;;17.40;57.60;;;;;;6215741;23;20005;-71
2023/03/14 05:42:02;;;;;;;2.13;1.40;;;17.50;57.70;;;;;;6215844;23;20000;-71
2023/03/14 05:44:28;;;;;;;2.75;1.48;;;17.50;57.70;;;;;;6216120;23;20302;-71
2023/03/14 05:46:54;;;;;;;2.72;1.95;;;17.50;57.90;;;;;;6215893;23;19992;-71
2023/03/14 05:49:20;;;;;;;2.33;2.05;;;17.50;58.00;;;;;;6216177;23;20084;-72
2023/03/14 05:51:46;;;;;;;3.50;2.70;;;17.50;58.10;;;;;;6216276;23;19992;-71
2023/03/14 05:54:12;;;;;;;3.42;3.10;;;17.50;58.20;;;;;;6216165;23;20007;-71
2023/03/14 05:56:38;;;;;;;3.90;3.60;;;17.50;58.20;;;;;;6215619;23;19992;-71
2023/03/14 05:59:04;;;;;;;5.50;4.70;;;17.50;58.20;;;;;;6216040;23;20024;-71
2023/03/14 06:01:30;;;;;;;5.10;4.70;;;17.50;58.30;;;;;;6215638;23;19997;-71
2023/03/14 06:03:56;;;;;;;5.70;5.28;;;17.50;58.40;;;;;;6226131;23;20404;-71
2023/03/14 06:06:21;;;;;;;6.57;6.13;;;17.50;58.20;;;;;;6225802;23;20007;-71
2023/03/14 06:08:47;;;;;;;6.70;6.20;;;17.50;58.40;;;;;;6225774;23;20345;-81
2023/03/14 06:11:13;;;;;;;7.30;6.60;;;17.50;58.50;;;;;;6225927;23;19992;-80
2023/03/14 06:13:38;;;;;;;8.10;7.40;;;17.40;58.60;;;;;;6226041;23;20001;-84
2023/03/14 06:16:05;;;;;;;7.65;6.95;;;17.40;58.70;;;;;;6226079;23;19996;-79
2023/03/14 06:18:30;;;;;;;7.95;7.35;;;17.40;58.70;;;;;;6225563;23;20035;-78
2023/03/14 06:20:56;;;;;;;7.78;7.28;;;17.50;58.70;;;;;;6213773;23;19996;-79
2023/03/14 06:23:22;;;;;;;7.70;7.15;;;17.50;59.30;;;;;;6225985;23;20020;-77
2023/03/14 06:25:48;;;;;;;8.15;7.47;;;17.50;58.60;;;;;;6224240;23;20428;-79
2023/03/14 06:28:14;;;;;;;7.60;6.80;;;17.50;58.60;;;;;;6225890;23;20000;-78
2023/03/14 06:30:39;;;;;;;7.15;6.55;;;17.50;58.70;;;;;;6225874;23;20004;-84
2023/03/14 06:33:05;;;;;;;6.75;6.28;;;17.50;58.50;;;;;;6216319;23;20356;-79
2023/03/14 06:35:31;;;;;;;5.78;5.35;;;17.50;58.60;;;;;;6216075;23;19997;-80
2023/03/14 06:37:57;;;;;;;5.57;5.18;;;17.50;58.60;;;;;;6216128;23;20012;-79
2023/03/14 06:40:23;;;;;;;5.75;5.25;;;17.50;58.60;;;;;;6215650;23;20395;-80
2023/03/14 06:42:49;;;;;;;5.15;4.38;;;17.50;58.60;;;;;;6215618;23;20004;-79
2023/03/14 06:45:16;;;;;;;4.95;4.13;;;17.50;58.60;;;;;;6216275;23;20075;-79
2023/03/14 06:47:42;;;;;;;4.65;4.22;;;17.50;58.60;;;;;;6215687;23;19997;-79
2023/03/14 06:50:10;;;;;;;4.15;3.75;;;17.50;58.50;;;;;;6215743;23;20024;-80
2023/03/14 06:52:36;;;;;;;4.28;3.85;;;17.50;58.60;;;;;;6215753;23;20548;-80
2023/03/14 06:55:03;;;;;;;4.00;3.28;;;17.50;58.60;;;;;;6215971;23;19993;-80
2023/03/14 06:57:29;;;;;;;2.67;2.47;;;17.50;58.50;;;;;;6215801;23;20313;-81
2023/03/14 06:59:55;;;;;;;3.25;2.60;;;17.50;58.50;;;;;;6215492;23;20009;-80
2023/03/14 07:02:22;;;;;;;2.65;2.33;;;17.50;58.50;;;;;;6215178;23;20013;-79
2023/03/14 07:04:48;;;;;;;2.70;2.50;;;17.50;58.40;;;;;;6215870;23;19997;-84
2023/03/14 07:07:14;;;;;;;2.22;2.03;;;17.50;58.40;;;;;;6215981;23;20001;-81
2023/03/14 07:09:40;;;;;;;1.95;1.85;;;17.50;58.30;;;;;;6215887;23;20075;-87
2023/03/14 07:12:06;;;;;;;3.35;1.98;;;17.40;58.30;;;;;;6216076;23;19993;-88
2023/03/14 07:14:32;;;;;;;2.00;1.80;;;17.50;58.30;;;;;;6215802;23;20046;-78
2023/03/14 07:16:58;;;;;;;2.15;1.50;;;17.50;58.30;;;;;;6213754;23;20064;-82
2023/03/14 07:19:24;;;;;;;1.98;1.40;;;17.40;58.20;;;;;;6215795;23;20100;-82
2023/03/14 07:21:50;;;;;;;2.42;1.80;;;17.40;58.20;;;;;;6215767;23;20293;-82
2023/03/14 07:24:16;;;;;;;1.33;1.08;;;17.50;58.20;;;;;;6215238;23;19996;-82
2023/03/14 07:26:42;;;;;;;1.58;1.08;;;17.50;58.20;;;;;;6215010;23;19993;-81
2023/03/14 07:29:08;;;;;;;6.55;1.30;;;17.40;58.10;;;;;;6215364;23;20389;-82
2023/03/14 07:31:34;;;;;;;2.28;1.00;;;17.40;58.10;;;;;;6215572;23;19997;-82
2023/03/14 07:34:00;;;;;;;0.70;0.70;;;17.40;58.10;;;;;;6215343;23;20324;-80
2023/03/14 07:36:26;;;;;;;1.65;0.70;;;17.40;58.10;;;;;;6215435;23;19999;-80
2023/03/14 07:38:52;;;;;;;2.42;1.05;;;17.40;58.10;;;;;;6214701;23;20001;-77
2023/03/14 07:41:20;;;;;;;1.35;1.05;;;17.40;58.10;;;;;;6215574;23;20050;-82
2023/03/14 07:43:46;;;;;;;1.73;1.05;;;17.40;58.70;;;;;;6215052;23;20000;-79
2023/03/14 07:46:13;;;;;;;3.75;0.75;;;17.40;58.80;;;;;;6215278;23;20004;-80
2023/03/14 07:48:39;;;;;;;2.58;0.63;;;17.40;58.70;;;;;;6215137;23;20181;-80
2023/03/14 07:51:05;;;;;;;2.00;0.80;;;17.40;58.20;;;;;;6215200;23;19993;-79
2023/03/14 07:53:31;;;;;;;1.55;0.70;;;17.40;58.20;;;;;;6215363;23;20001;-80
2023/03/14 07:55:57;;;;;;;1.02;0.50;;;17.40;58.10;;;;;;6215172;23;20301;-79
2023/03/14 07:58:23;;;;;;;1.13;0.63;;;17.40;58.10;;;;;;6214848;23;22371;-79
2023/03/14 08:00:50;;;;;;;1.52;0.70;;;17.40;58.10;;;;;;6214908;23;20012;-79
2023/03/14 08:03:17;;;;;;;1.00;0.50;;;17.40;58.10;;;;;;6214320;23;20004;-79
2023/03/14 08:05:44;;;;;;;2.00;0.60;;;17.40;58.10;;;;;;6215150;23;20019;-78
2023/03/14 08:08:10;;;;;;;2.40;0.60;;;17.40;58.10;;;;;;6214810;23;20004;-79
2023/03/14 08:10:36;;;;;;;1.23;0.50;;;17.40;58.10;;;;;;6214971;23;20436;-79
2023/03/14 08:13:02;;;;;;;1.35;0.55;;;17.40;58.70;;;;;;6214444;23;20046;-85
2023/03/14 08:15:30;;;;;;;1.02;0.40;;;17.40;58.10;;;;;;6213400;23;20000;-81
2023/03/14 08:17:56;;;;;;;0.60;0.40;;;17.30;58.00;;;;;;6215030;23;20092;-81
2023/03/14 08:20:25;;;;;;;1.30;0.50;;;17.40;58.00;;;;;;6214787;23;20025;-79
2023/03/14 08:22:51;;;;;;;1.52;0.50;;;17.30;57.90;;;;;;6214938;23;20368;-79
2023/03/14 08:25:17;;;;;;;1.17;0.50;;;17.30;57.90;;;;;;6214879;23;20072;-79
2023/03/14 08:27:43;;;;;;;1.40;0.52;;;17.30;57.80;;;;;;6224714;23;20020;-78
2023/03/14 08:30:11;;;;;;;1.40;0.52;;;17.30;57.80;;;;;;6215001;23;20071;-78
2023/03/14 08:32:38;;;;;;;1.10;0.40;;;17.30;57.80;;;;;;6224720;23;20051;-78
2023/03/14 08:35:05;;;;;;;1.55;0.50;;;17.30;57.80;;;;;;6224837;23;20001;-78
2023/03/14 08:37:35;;;;;;;1.63;0.30;;;17.30;57.80;;;;;;6224847;23;20370;-78
2023/03/14 08:40:01;;;;;;;2.75;0.40;;;17.30;57.70;;;;;;6224518;23;20376;-78
2023/03/14 08:42:27;;;;;;;1.25;0.43;;;17.30;57.60;;;;;;6215180;23;20325;-77
2023/03/14 08:44:52;;;;;;;1.08;0.43;;;17.30;57.60;;;;;;6226982;23;19996;-83
2023/03/14 08:47:19;;;;;;;0.85;0.50;;;17.30;57.60;;;;;;6226767;23;20012;-78
2023/03/14 08:49:44;;;;;;;1.75;0.32;;;17.30;57.50;;;;;;6226808;23;20001;-78
2023/03/14 08:52:10;;;;;;;2.70;0.50;;;17.30;57.50;;;;;;6226590;23;20387;-79
2023/03/14 08:54:35;;;;;;;1.35;0.50;;;17.20;57.30;;;;;;6225194;23;20012;-79
2023/03/14 08:57:01;;;;;;;2.00;0.52;;;17.20;57.20;;;;;;6226483;23;20297;-79
2023/03/14 08:59:26;;;;;;;1.70;0.30;;;17.20;57.20;;;;;;6226414;23;20004;-79
2023/03/14 09:01:53;;;;;;;4.20;0.70;;;17.20;57.20;;;;;;6226197;23;20019;-79
2023/03/14 09:04:20;;;;;;;1.33;0.40;;;17.20;57.70;;;;;;6226476;23;20054;-79
2023/03/14 09:06:45;;;;;;;1.73;0.40;;;17.20;57.20;;;;;;6225177;23;19996;-79
2023/03/14 09:09:13;;;;;;;1.95;0.60;;;17.20;57.20;;;;;;6226438;23;20001;-79
2023/03/14 09:11:39;;;;;;;2.15;0.63;;;17.20;57.20;;;;;;6226571;23;20368;-78
2023/03/14 09:14:04;;;;;;;1.88;0.40;;;17.20;57.10;;;;;;6226379;23;19997;-79
2023/03/14 09:16:30;;;;;;;2.08;0.52;;;17.20;57.10;;;;;;6226356;23;19997;-79
2023/03/14 09:18:59;;;;;;;1.10;0.70;;;17.20;57.10;;;;;;6226419;23;20016;-79
2023/03/14 09:21:27;;;;;;;1.70;0.40;;;17.20;57.10;;;;;;6226309;23;19999;-79
2023/03/14 09:23:53;;;;;;;1.88;0.52;;;17.20;56.90;;;;;;6226382;23;19997;-78
2023/03/14 09:26:19;;;;;;;1.23;0.40;;;17.20;56.80;;;;;;6226357;23;20000;-79
2023/03/14 09:28:45;;;;;;;0.77;0.32;;;17.20;56.90;;;;;;6226332;23;20034;-79
2023/03/14 09:31:12;;;;;;;2.55;0.52;;;17.20;56.90;;;;;;6226246;23;20091;-79
2023/03/14 09:33:38;;;;;;;0.98;0.50;;;17.20;56.70;;;;;;6226303;23;20459;-79
2023/03/14 09:36:04;;;;;;;0.70;0.45;;;17.20;56.60;;;;;;6226342;23;20007;-79
2023/03/14 09:38:30;;;;;;;1.63;0.30;;;17.30;56.70;;;;;;6214261;23;20035;-79
2023/03/14 09:41:00;;;;;;;1.90;0.43;;;17.20;56.60;;;;;;6226296;23;20000;-79
2023/03/14 09:43:31;;;;;;;1.15;0.40;;;17.20;56.70;;;;;;6226119;23;19996;-79
2023/03/14 09:46:00;;;;;;;2.35;0.60;;;17.20;56.50;;;;;;6216066;23;20001;-79
2023/03/14 09:48:32;;;;;;;2.55;0.70;;;17.20;56.50;;;;;;6226236;23;20012;-79
2023/03/14 09:51:02;;;;;;;1.73;0.80;;;17.20;56.70;;;;;;6226204;23;19996;-79
2023/03/14 09:53:51;;;;;;;3.58;0.80;;;17.20;56.60;;;;;;6225709;23;20000;-79
2023/03/14 09:56:30;;;;;;;2.72;0.60;;;17.20;56.60;;;;;;6226056;23;19996;-78
2023/03/14 09:58:59;;;;;;;2.53;0.68;;;17.20;57.20;;;;;;6226077;23;20005;-78
2023/03/14 10:01:28;;;;;;;0.90;0.60;;;17.20;56.50;;;;;;6225580;23;19996;-80
2023/03/14 10:03:56;;;;;;;2.90;0.68;;;17.20;56.70;;;;;;6225902;23;20466;-78
2023/03/14 10:06:26;;;;;;;2.53;0.80;;;17.20;56.80;;;;;;6225729;23;19992;-80
2023/03/14 10:08:53;;;;;;;2.55;0.70;;;17.20;56.80;;;;;;6216092;23;20001;-78
2023/03/14 10:11:20;;;;;;;3.40;1.00;;;17.10;56.70;;;;;;6215852;23;20004;-78
2023/03/14 10:14:14;;;;;;;3.38;0.68;;;17.20;56.70;;;;;;6215880;23;19997;-79
2023/03/14 10:16:45;;;;;;;2.15;0.60;;;17.10;56.60;;;;;;6215780;23;20004;-78
2023/03/14 10:19:14;;;;;;;2.33;0.80;;;17.10;56.60;;;;;;6215884;23;20048;-78
2023/03/14 10:21:42;;;;;;;1.95;0.80;;;17.10;56.60;;;;;;6215708;23;20016;-78
2023/03/14 10:24:26;;;;;;;1.85;0.55;;;17.10;56.50;;;;;;6215834;23;20072;-79
2023/03/14 10:26:55;;;;;;;4.93;0.90;;;17.10;56.60;;;;;;6215507;23;19997;-79
2023/03/14 10:29:24;;;;;;;3.55;1.20;;;17.10;56.50;;;;;;6215462;23;20007;-79
2023/03/14 10:31:52;;;;;;;2.33;0.57;;;17.10;56.50;;;;;;6215740;23;20066;-79
2023/03/14 10:34:32;;;;;;;3.08;0.80;;;17.10;56.50;;;;;;6215627;23;20070;-79
2023/03/14 10:37:05;;;;;;;;;;;17.10;56.50;;;;;;6216422;23;19992;-80
2023/03/14 10:39:42;;;;;;;2.13;0.68;;;17.10;56.50;;;;;;6225832;23;19908;-79
2023/03/14 10:42:29;;;;;;;3.67;1.35;;;17.10;56.50;;;;;;6216187;23;20024;-79
2023/03/14 10:44:59;;;;;;;3.13;0.90;;;17.10;56.50;;;;;;6216115;23;20021;-79
2023/03/14 10:47:28;;;;;;;3.03;1.00;;;17.10;56.50;;;;;;6225850;23;19997;-79
2023/03/14 10:49:54;;;;;;;4.65;1.48;;;17.10;56.50;;;;;;6225462;23;20240;-81
2023/03/14 10:52:24;;;;;;;2.65;0.70;;;17.00;56.60;;;;;;6225534;23;20007;-81
2023/03/14 10:55:01;;;;;;;4.40;1.38;;;17.00;56.70;;;;;;6225233;23;20007;-81
2023/03/14 10:57:26;;;;;;;3.28;1.05;;;17.00;56.70;;;;;;6225635;23;20000;-81
2023/03/14 10:59:56;;;;;;;4.00;1.20;;;17.00;56.80;;;;;;6215225;23;20511;-80
2023/03/14 11:02:43;;;;;;;4.33;1.13;;;17.00;56.80;;;;;;6215083;23;20013;-80
2023/03/14 11:05:21;;;;;;;6.10;1.38;;;17.00;56.80;;;;;;6225158;23;20000;-80
2023/03/14 11:07:46;;;;;;;7.53;1.40;;;17.00;56.50;;;;;;6225282;23;20035;-80
2023/03/14 11:10:31;;;;;;;5.03;1.10;;;17.00;56.40;;;;;;6213647;23;19999;-80
2023/03/14 11:13:11;;;;;;;3.65;1.13;;;17.00;56.60;;;;;;6215019;23;20000;-80
2023/03/14 11:16:04;;;;;;;4.87;1.00;;;17.00;56.50;;;;;;6215235;23;20417;-80
2023/03/14 11:19:17;;;;;;;4.53;1.42;;;17.10;56.50;;;;;;6215049;23;20335;-80
2023/03/14 11:22:00;;;;;;;4.97;1.23;;;17.10;56.40;;;;;;6162705;23;20080;-73
2023/03/14 11:24:53;;;;;;;7.63;1.95;;;17.10;56.50;;;;;;6162284;23;20016;-73
2023/03/14 11:27:36;;;;;;;3.88;1.42;;;17.10;56.30;;;;;;6204309;23;20054;-73
2023/03/14 11:30:18;;;;;;;6.38;1.73;;;17.10;56.30;;;;;;6225017;23;20024;-73
2023/03/14 11:32:54;;;;;;;6.40;1.48;;;17.10;56.20;;;;;;6225022;23;20000;-72
2023/03/14 11:35:26;;;;;;;5.15;1.80;;;17.20;55.80;;;;;;6224862;23;20001;-72
2023/03/14 11:38:19;;;;;;;7.18;1.92;;;17.20;55.30;;;;;;6224904;23;20396;-72
2023/03/14 11:40:48;;;;;;;7.57;1.80;;;17.40;55.10;;;;;;6211725;23;20340;-73
2023/03/14 11:43:27;;;;;;;3.97;1.25;;;17.50;55.00;;;;;;6215128;23;20328;-73
2023/03/14 11:45:57;;;;;;;5.50;1.52;;;17.60;54.40;;;;;;6215014;23;20050;-73
2023/03/14 11:48:38;;;;;;;7.43;1.88;;;17.60;54.20;;;;;;6215053;23;20012;-73
2023/03/14 11:51:12;;;;;;;5.28;1.88;;;17.70;54.30;;;;;;6215419;23;20305;-72
2023/03/14 11:53:55;;;;;;;5.60;1.52;;;17.80;53.80;;;;;;6214940;23;20000;-73
2023/03/14 11:56:58;;;;;;;6.10;1.35;;;18.00;53.30;;;;;;6214680;23;20126;-73
2023/03/14 11:59:48;;;;;;;6.45;1.90;;;18.10;52.80;;;;;;6214428;23;20012;-72
2023/03/14 12:02:29;;;;;;;5.90;1.88;;;18.20;52.70;;;;;;6214447;23;20399;-73
2023/03/14 12:05:17;;;;;;;3.83;1.23;;;18.40;52.40;;;;;;6214774;23;20001;-73
2023/03/14 12:08:21;;;;;;;6.63;1.48;;;18.40;52.50;;;;;;6214447;23;20053;-73
2023/03/14 12:10:50;;;;;;;4.82;1.85;;;18.60;52.10;;;;;;6151884;23;20029;-72
2023/03/14 12:13:16;;;;;;;5.03;1.33;;;18.70;51.20;;;;;;6151811;23;20005;-73
2023/03/14 12:16:00;;;;;;;5.95;1.67;;;18.80;51.00;;;;;;6182943;23;20328;-73
2023/03/14 12:18:28;;;;;;;3.55;1.40;;;18.80;51.40;;;;;;6214617;23;20372;-80
2023/03/14 12:20:57;;;;;;;5.72;1.10;;;18.90;51.00;;;;;;6214721;23;20027;-79
2023/03/14 12:23:25;;;;;;;5.45;1.42;;;18.90;50.50;;;;;;6214851;23;20316;-80
2023/03/14 12:26:42;;;;;;;8.10;1.60;;;18.90;50.80;;;;;;6215026;23;20000;-79
2023/03/14 12:29:16;;;;;;;5.05;1.60;;;18.60;51.70;;;;;;6151814;23;20492;-79
2023/03/14 12:31:45;;;;;;;8.48;1.58;;;18.50;51.90;;;;;;6211810;23;20024;-79
2023/03/14 12:34:11;;;;;;;4.07;1.57;;;18.50;50.80;;;;;;6214878;23;20020;-80
2023/03/14 12:36:49;;;;;;;7.82;2.05;;;18.60;51.50;;;;;;6214790;23;20074;-80
2023/03/14 12:39:43;;;;;;;5.93;1.88;;;18.80;51.60;;;;;;6214495;23;20258;-80
2023/03/14 12:42:35;;;;;;;5.93;1.75;;;18.90;51.50;;;;;;6214755;23;20063;-80
2023/03/14 12:45:14;;;;;;;3.90;1.40;;;19.10;50.90;;;;;;6214796;23;20090;-79
2023/03/14 12:47:49;;;;;;;4.72;1.38;;;19.10;51.70;;;;;;6214614;23;20039;-79
2023/03/14 12:50:23;;;;;;;4.65;1.42;;;19.00;50.80;;;;;;6214314;23;19993;-80
2023/03/14 12:53:20;;;;;;;3.55;1.38;;;18.90;50.60;;;;;;6214973;23;20005;-80
2023/03/14 12:56:10;;;;;;;5.47;1.23;;;18.90;51.20;;;;;;6214953;23;19997;-80
2023/03/14 12:58:58;;;;;;;5.32;1.17;;;18.80;50.80;;;;;;6203187;23;20108;-80